Phuketista Helsinkiin MD-11 |IVAO|

(1/3) > >>

Pade:
Iltaa foorumille. Tänään siis lähdettiin Markun kanssa lentämään MD-11 koneilla Phuketista Helsinkiin. Kone yksilönä toimii siis MD-11 rekisteriltään OHLGG. Lennon reitti sujui näin:
Code:

PUT L759 BBS L759 AGG L760 DPN A589 ASARI A466 SITAX A466 AMDAR A466 TMD A66 ODIVA B824 URL G3 FV R11 TU R58 NOTAR P855 GONOS P171 INTOR


No mennääs sitten lentokoneelle.
Ollaan portilla ja Markkukin on kentälle 


Reittiä syötetään boxiin.


Suoritetaan vielä valotesti ja sitten oltas valmiita lähtöön.


Phuketin sää näytti suurinpiirtein tältä:
Code:

VTSP 240730Z VRB04KT 7000 FEW018 BKN120 BKN300 29/23 Q1009 A2981
Otettiin siis kiitotie 09 lentoonlähtöön tosin SIDiä ei otettu vaan vasemmalla kaarrolla kohti reittiä.

Sitten sen jälkeen oli aika käynistelellä kaikki kolme moottoria ja työntää kone rullaustielle.


Lähdetään rullaamaan odotuspaikalle.


Paikallinen spotteri kuvasi meidät.


Ooteltiin vielä Alitalia laskuun.


Ja sitten mennään eikä meinata.


Ja rotate!


Ja ilmassa ollaan joten telineet ylös ja kohti Helsinkiä.


Sitten ollaankin jo lentopinnalla 300 ja alotettiin lennon pisin ja tylsin vaihe.


IFEkin oltiin viime lennon jälkeen asennettu ohjaamoonkin 


Intian rannikko on lähestymässä hurjaa vauhtia.


Kaartelua


...


Ollaan jo lähempänä ja Venäjän lennonjohdon alaisena mennään vielä hetki.


Helsingin sää taas näytti suunnilleen tältä:
Code:

EFHK 241820Z 22005KT CAVOK M07/M09 Q1032 NOSIG
Tyyskä komensi INTOR 2J kautta kiitotie 22L:lle menemään joten ei muuta kun se boxiin ja seuraillaan reittiä.

Ja vähän ajan päästä Helsingin kaupunkikin alkoi näkymään, ei siis pitkä matka enään.


Ja ollaan jo lähempänä, sorvia sorvia.


Jarrutellaan samalla kun Markku on vielä hetken ilmassa.


Sitten ollaankin jo portilla 37 ja lentoaikaa näytti olevan 0824 mutten ihan taida uskoa tällä kertaa sitä kelloa 


Markku on saapunut viereiselle portille.


Ja ohjaamo on pimeänä joten ei muuta kuin pihalle ja jätetään vanha rouva lepäämään.


Keroa meni paljon ja aikaakin jokunen tunti.
Ojanen kiittää taas kerran 

markku p:
Kiitti hirveesti noista "punainen paroni II".

Kuka sääti oman simunsa lähtökentälle että piti jäädä holdiin. 

Mutta muuten hieno lento ja stoorikin oli ihan mukava.

Pade:
Quote

Kiitti hirveesti noista "punainen paroni II".

Kuka sääti oman simunsa lähtökentälle että piti jäädä holdiin. 

Mutta muuten hieno lento ja stoorikin oli ihan mukava.


Mut se oli vahinko 

markku p:
Quote

Mut se oli vahinko 


Entä jos omakin säätö oli vahinkoa? 

Pade:
Quote

Entä jos omakin säätö oli vahinkoa? 


Sellasta sattuu 

Navigation

Up one level

Next page